createdAt,value
2023-06-11T00:00:52.594Z,18.3
2023-06-11T00:01:53.786Z,18.3
2023-06-11T00:02:55.020Z,18.3
2023-06-11T00:03:56.882Z,18.3
2023-06-11T00:04:58.339Z,18.2
2023-06-11T00:05:59.816Z,18.2
2023-06-11T00:07:00.981Z,18.2
2023-06-11T00:08:02.287Z,18.2
2023-06-11T00:09:03.476Z,18.2
2023-06-11T00:10:04.669Z,18.2
2023-06-11T00:11:05.845Z,18.2
2023-06-11T00:12:07.021Z,18.2
2023-06-11T00:13:08.187Z,18.1
2023-06-11T00:14:09.363Z,18.1
2023-06-11T00:15:10.766Z,18.1
2023-06-11T00:16:12.583Z,18.1
2023-06-11T00:17:13.779Z,18.1
2023-06-11T00:18:14.965Z,18.1
2023-06-11T00:19:16.102Z,18.1
2023-06-11T00:20:17.319Z,18.1
2023-06-11T00:21:18.481Z,18
2023-06-11T00:22:19.642Z,18
2023-06-11T00:23:20.847Z,18
2023-06-11T00:24:22.000Z,18
2023-06-11T00:25:23.245Z,18
2023-06-11T00:26:24.446Z,18
2023-06-11T00:27:25.608Z,18
2023-06-11T00:28:26.783Z,17.9
2023-06-11T00:29:27.941Z,17.9
2023-06-11T00:30:29.120Z,17.9
2023-06-11T00:31:30.320Z,17.9
2023-06-11T00:32:31.479Z,17.9
2023-06-11T00:33:32.874Z,17.9
2023-06-11T00:34:34.009Z,17.8
2023-06-11T00:35:35.178Z,17.8
2023-06-11T00:36:36.346Z,17.8
2023-06-11T00:37:37.513Z,17.8
2023-06-11T00:38:38.743Z,17.8
2023-06-11T00:39:39.909Z,17.8
2023-06-11T00:40:41.068Z,17.8
2023-06-11T00:41:42.285Z,17.7
2023-06-11T00:42:43.417Z,17.7
2023-06-11T00:43:44.597Z,17.7
2023-06-11T00:44:45.749Z,17.7
2023-06-11T00:45:46.923Z,17.7
2023-06-11T00:46:48.084Z,17.7
2023-06-11T00:47:49.308Z,17.6
2023-06-11T00:48:50.645Z,17.6
2023-06-11T00:49:51.862Z,17.6
2023-06-11T00:50:53.092Z,17.6
2023-06-11T00:51:54.325Z,17.6
2023-06-11T00:52:55.472Z,17.6
2023-06-11T00:53:56.651Z,17.6
2023-06-11T00:54:59.586Z,17.5
2023-06-11T00:56:01.040Z,17.5
2023-06-11T00:57:02.216Z,17.5
2023-06-11T00:58:03.375Z,17.5
2023-06-11T00:59:04.579Z,17.5
2023-06-11T01:00:05.744Z,17.5
2023-06-11T01:01:06.970Z,17.4
2023-06-11T01:02:08.237Z,17.4
2023-06-11T01:03:09.414Z,17.4
2023-06-11T01:04:10.783Z,17.4
2023-06-11T01:05:12.405Z,17.4
2023-06-11T01:06:14.775Z,17.4
2023-06-11T01:07:15.936Z,17.4
2023-06-11T01:08:17.104Z,17.3
2023-06-11T01:09:18.280Z,17.3
2023-06-11T01:10:19.454Z,17.3
2023-06-11T01:11:20.604Z,17.3
2023-06-11T01:12:21.767Z,17.3
2023-06-11T01:13:22.936Z,17.3
2023-06-11T01:14:24.126Z,17.3
2023-06-11T01:15:25.271Z,17.2
2023-06-11T01:16:26.438Z,17.2
2023-06-11T01:17:27.626Z,17.2
2023-06-11T01:18:28.776Z,17.2
2023-06-11T01:19:29.996Z,17.2
2023-06-11T01:20:31.151Z,17.2
2023-06-11T01:21:32.312Z,17.2
2023-06-11T01:22:33.499Z,17.1
2023-06-11T01:23:34.699Z,17.1
2023-06-11T01:24:36.195Z,17.1
2023-06-11T01:25:37.362Z,17.1
2023-06-11T01:26:41.518Z,17.1
2023-06-11T01:27:42.643Z,17.1
2023-06-11T01:28:43.813Z,17.1
2023-06-11T01:29:44.980Z,17.1
2023-06-11T01:30:46.140Z,17
2023-06-11T01:31:47.378Z,17
2023-06-11T01:32:48.725Z,17
2023-06-11T01:33:50.080Z,17
2023-06-11T01:34:51.283Z,17
2023-06-11T01:35:52.441Z,17
2023-06-11T01:36:53.647Z,17
2023-06-11T01:37:54.816Z,17
2023-06-11T01:38:55.978Z,16.9
2023-06-11T01:39:57.160Z,16.9
2023-06-11T01:40:58.319Z,16.9
2023-06-11T01:41:59.539Z,16.9
2023-06-11T01:43:00.715Z,16.9
2023-06-11T01:44:01.868Z,16.9
2023-06-11T01:45:03.041Z,16.8
2023-06-11T01:46:04.232Z,16.8
2023-06-11T01:47:05.447Z,16.8
2023-06-11T01:48:06.800Z,16.8
2023-06-11T01:49:08.118Z,16.8
2023-06-11T01:50:09.317Z,16.8
2023-06-11T01:51:10.458Z,16.8
2023-06-11T01:52:11.653Z,16.7
2023-06-11T01:53:12.790Z,16.7
2023-06-11T01:54:13.957Z,16.7
2023-06-11T01:55:15.131Z,16.7
2023-06-11T01:56:16.307Z,16.7
2023-06-11T01:57:17.474Z,16.7
2023-06-11T01:58:18.640Z,16.7
2023-06-11T01:59:19.798Z,16.7
2023-06-11T02:00:20.977Z,16.7
2023-06-11T02:01:22.184Z,16.6
2023-06-11T02:02:23.352Z,16.6
2023-06-11T02:03:24.684Z,16.6
2023-06-11T02:04:25.997Z,16.6
2023-06-11T02:05:27.255Z,16.6
2023-06-11T02:06:28.478Z,16.6
2023-06-11T02:07:29.625Z,16.6
2023-06-11T02:08:30.792Z,16.5
2023-06-11T02:09:31.970Z,16.5
2023-06-11T02:10:33.228Z,16.5
2023-06-11T02:11:34.502Z,16.5
2023-06-11T02:12:35.658Z,16.5
2023-06-11T02:13:36.911Z,16.5
2023-06-11T02:14:38.056Z,16.5
2023-06-11T02:15:39.287Z,16.5
2023-06-11T02:16:40.453Z,16.4
2023-06-11T02:17:41.788Z,16.4
2023-06-11T02:18:43.105Z,16.4
2023-06-11T02:19:44.266Z,16.4
2023-06-11T02:20:45.567Z,16.4
2023-06-11T02:21:46.771Z,16.4
2023-06-11T02:22:47.926Z,16.4
2023-06-11T02:23:49.185Z,16.4
2023-06-11T02:24:50.427Z,16.4
2023-06-11T02:25:51.636Z,16.3
2023-06-11T02:26:52.786Z,16.3
2023-06-11T02:27:53.926Z,16.3
2023-06-11T02:28:55.108Z,16.3
2023-06-11T02:29:56.309Z,16.3
2023-06-11T02:30:57.490Z,16.3
2023-06-11T02:31:58.699Z,16.2
2023-06-11T02:33:00.228Z,16.2
2023-06-11T02:34:01.527Z,16.2
2023-06-11T02:35:02.714Z,16.2
2023-06-11T02:36:03.887Z,16.2
2023-06-11T02:37:05.040Z,16.2
2023-06-11T02:38:06.196Z,16.2
2023-06-11T02:39:07.369Z,16.1
2023-06-11T02:40:08.539Z,16.1
2023-06-11T02:41:09.700Z,16.1
2023-06-11T02:42:10.860Z,16.1
2023-06-11T02:43:12.045Z,16.1
2023-06-11T02:44:13.193Z,16.1
2023-06-11T02:45:14.378Z,16.1
2023-06-11T02:46:15.531Z,16.1
2023-06-11T02:47:17.690Z,16.1
2023-06-11T02:48:18.860Z,16
2023-06-11T02:49:20.031Z,16
2023-06-11T02:50:21.236Z,16
2023-06-11T02:51:22.400Z,16
2023-06-11T02:52:23.593Z,16
2023-06-11T02:53:24.743Z,16
2023-06-11T02:54:25.912Z,16
2023-06-11T02:55:27.089Z,16
2023-06-11T02:56:28.247Z,15.9
2023-06-11T02:57:29.415Z,15.9
2023-06-11T02:58:30.581Z,15.9
2023-06-11T02:59:31.764Z,15.9
2023-06-11T03:00:32.925Z,15.9
2023-06-11T03:01:34.098Z,15.9
2023-06-11T03:02:35.442Z,15.9
2023-06-11T03:03:36.752Z,15.9
2023-06-11T03:04:37.915Z,15.8
2023-06-11T03:05:39.097Z,15.8
2023-06-11T03:06:40.302Z,15.8
2023-06-11T03:07:41.494Z,15.8
2023-06-11T03:08:42.687Z,15.8
2023-06-11T03:09:43.850Z,15.8
2023-06-11T03:10:45.106Z,15.8
2023-06-11T03:11:46.282Z,15.8
2023-06-11T03:12:47.500Z,15.8
2023-06-11T03:13:48.676Z,15.8
2023-06-11T03:14:49.843Z,15.7
2023-06-11T03:15:51.104Z,15.7
2023-06-11T03:16:52.398Z,15.7
2023-06-11T03:17:53.653Z,15.7
2023-06-11T03:18:54.985Z,15.7
2023-06-11T03:19:56.165Z,15.7
2023-06-11T03:20:57.501Z,15.7
2023-06-11T03:21:58.737Z,15.7
2023-06-11T03:22:59.930Z,15.7
2023-06-11T03:24:01.123Z,15.7
2023-06-11T03:25:02.363Z,15.7
2023-06-11T03:26:03.532Z,15.7
2023-06-11T03:27:04.683Z,15.7
2023-06-11T03:28:05.864Z,15.7
2023-06-11T03:29:07.186Z,15.7
2023-06-11T03:30:08.373Z,15.6
2023-06-11T03:31:09.580Z,15.6
2023-06-11T03:32:13.084Z,15.6
2023-06-11T03:33:14.487Z,15.6
2023-06-11T03:34:15.647Z,15.6
2023-06-11T03:35:16.820Z,15.6
2023-06-11T03:36:18.522Z,15.6
2023-06-11T03:37:19.680Z,15.6
2023-06-11T03:38:20.849Z,15.6
2023-06-11T03:39:21.989Z,15.6
2023-06-11T03:40:23.169Z,15.6
2023-06-11T03:41:24.325Z,15.6
2023-06-11T03:42:25.491Z,15.6
2023-06-11T03:43:26.662Z,15.6
2023-06-11T03:44:27.822Z,15.6
2023-06-11T03:45:29.007Z,15.6
2023-06-11T03:46:30.171Z,15.6
2023-06-11T03:47:31.402Z,15.6
2023-06-11T03:48:32.582Z,15.6
2023-06-11T03:49:33.758Z,15.6
2023-06-11T03:50:34.925Z,15.6
2023-06-11T03:51:36.088Z,15.6
2023-06-11T03:52:37.293Z,15.6
2023-06-11T03:53:38.450Z,15.6
2023-06-11T03:54:39.609Z,15.6
2023-06-11T03:55:40.828Z,15.6
2023-06-11T03:56:41.983Z,15.6
2023-06-11T03:57:43.349Z,15.6
2023-06-11T03:58:46.937Z,15.6
2023-06-11T03:59:48.072Z,15.6
2023-06-11T04:00:49.282Z,15.7
2023-06-11T04:01:50.425Z,15.7
2023-06-11T04:02:51.850Z,15.7
2023-06-11T04:03:58.821Z,15.7
2023-06-11T04:05:00.205Z,15.7
2023-06-11T04:06:01.413Z,15.7
2023-06-11T04:07:04.959Z,15.7
2023-06-11T04:08:06.163Z,15.7
2023-06-11T04:09:07.426Z,15.7
2023-06-11T04:10:08.615Z,15.7
2023-06-11T04:11:09.847Z,15.7
2023-06-11T04:12:11.020Z,15.7
2023-06-11T04:13:12.862Z,15.7
2023-06-11T04:14:14.025Z,15.7
2023-06-11T04:15:15.306Z,15.7
2023-06-11T04:16:16.575Z,15.8
2023-06-11T04:17:17.852Z,15.8
2023-06-11T04:18:19.268Z,15.8
2023-06-11T04:19:20.414Z,15.8
2023-06-11T04:20:21.593Z,15.8
2023-06-11T04:21:23.054Z,15.8
2023-06-11T04:22:24.353Z,15.8
2023-06-11T04:23:25.645Z,15.8
2023-06-11T04:24:26.992Z,15.8
2023-06-11T04:25:28.437Z,15.8
2023-06-11T04:26:29.675Z,15.9
2023-06-11T04:27:30.883Z,15.9
2023-06-11T04:28:32.212Z,15.9
2023-06-11T04:29:33.468Z,15.9
2023-06-11T04:30:34.760Z,15.9
2023-06-11T04:31:39.132Z,15.9
2023-06-11T04:32:40.502Z,16
2023-06-11T04:33:41.897Z,16
2023-06-11T04:34:43.026Z,16
2023-06-11T04:35:44.218Z,16
2023-06-11T04:36:45.546Z,16
2023-06-11T04:37:46.723Z,16
2023-06-11T04:38:48.014Z,16.1
2023-06-11T04:39:49.475Z,16.1
2023-06-11T04:40:53.389Z,16.1
2023-06-11T04:41:54.649Z,16.1
2023-06-11T04:42:55.806Z,16.1
2023-06-11T04:43:57.040Z,16.1
2023-06-11T04:44:58.227Z,16.1
2023-06-11T04:45:59.382Z,16.2
2023-06-11T04:47:00.596Z,16.2
2023-06-11T04:48:01.918Z,16.2
2023-06-11T04:49:03.286Z,16.2
2023-06-11T04:50:04.436Z,16.2
2023-06-11T04:51:05.683Z,16.3
2023-06-11T04:52:06.839Z,16.3
2023-06-11T04:53:08.010Z,16.3
2023-06-11T04:54:09.266Z,16.3
2023-06-11T04:55:13.281Z,16.3
2023-06-11T04:56:15.090Z,16.4
2023-06-11T04:57:16.274Z,16.4
2023-06-11T04:58:17.425Z,16.4
2023-06-11T04:59:18.635Z,16.4
2023-06-11T05:00:19.783Z,16.4
2023-06-11T05:01:20.947Z,16.4
2023-06-11T05:02:22.250Z,16.5
2023-06-11T05:03:23.772Z,16.5
2023-06-11T05:04:25.223Z,16.5
2023-06-11T05:05:26.426Z,16.5
2023-06-11T05:06:27.920Z,16.6
2023-06-11T05:07:29.206Z,16.6
2023-06-11T05:08:30.545Z,16.6
2023-06-11T05:09:31.805Z,16.6
2023-06-11T05:10:33.007Z,16.7
2023-06-11T05:11:34.281Z,16.7
2023-06-11T05:12:35.439Z,16.7
2023-06-11T05:13:36.720Z,16.7
2023-06-11T05:14:37.932Z,16.7
2023-06-11T05:15:39.073Z,16.8
2023-06-11T05:16:40.537Z,16.8
2023-06-11T05:17:41.798Z,16.8
2023-06-11T05:18:43.112Z,16.9
2023-06-11T05:19:44.322Z,16.9
2023-06-11T05:20:45.455Z,16.9
2023-06-11T05:21:46.619Z,16.9
2023-06-11T05:22:47.787Z,16.9
2023-06-11T05:23:48.972Z,17
2023-06-11T05:24:50.303Z,17
2023-06-11T05:25:51.648Z,17
2023-06-11T05:26:52.882Z,17.1
2023-06-11T05:27:54.074Z,17.1
2023-06-11T05:28:55.432Z,17.1
2023-06-11T05:29:56.687Z,17.1
2023-06-11T05:30:57.913Z,17.2
2023-06-11T05:31:59.111Z,17.2
2023-06-11T05:33:00.476Z,17.2
2023-06-11T05:34:01.886Z,17.2
2023-06-11T05:35:06.006Z,17.3
2023-06-11T05:36:07.288Z,17.3
2023-06-11T05:37:08.468Z,17.3
2023-06-11T05:38:09.642Z,17.3
2023-06-11T05:39:10.848Z,17.4
2023-06-11T05:40:12.132Z,17.4
2023-06-11T05:41:13.413Z,17.4
2023-06-11T05:42:14.636Z,17.4
2023-06-11T05:43:16.268Z,17.5
2023-06-11T05:44:17.439Z,17.5
2023-06-11T05:45:18.614Z,17.5
2023-06-11T05:46:19.973Z,17.5
2023-06-11T05:47:21.392Z,17.6
2023-06-11T05:48:23.014Z,17.6
2023-06-11T05:49:24.380Z,17.6
2023-06-11T05:50:25.606Z,17.7
2023-06-11T05:51:26.833Z,17.7
2023-06-11T05:52:28.168Z,17.7
2023-06-11T05:53:29.750Z,17.7
2023-06-11T05:54:30.914Z,17.8
2023-06-11T05:55:32.178Z,17.8
2023-06-11T05:56:33.369Z,17.8
2023-06-11T05:57:34.540Z,17.9
2023-06-11T05:58:38.622Z,17.9
2023-06-11T05:59:39.780Z,18
2023-06-11T06:00:43.185Z,18
2023-06-11T06:01:44.371Z,18
2023-06-11T06:02:45.638Z,18.1
2023-06-11T06:03:50.095Z,18.1
2023-06-11T06:04:51.799Z,18.1
2023-06-11T06:05:56.120Z,18.2
2023-06-11T06:06:59.808Z,18.2
2023-06-11T06:08:00.998Z,18.3
2023-06-11T06:09:05.106Z,18.3
2023-06-11T06:10:06.336Z,18.3
2023-06-11T06:11:07.579Z,18.4
2023-06-11T06:12:08.727Z,18.4
2023-06-11T06:13:09.891Z,18.5
2023-06-11T06:14:13.849Z,18.5
2023-06-11T06:15:15.027Z,18.6
2023-06-11T06:16:16.268Z,18.6
2023-06-11T06:17:20.378Z,18.7
2023-06-11T06:18:21.584Z,18.7
2023-06-11T06:19:24.798Z,18.7
2023-06-11T06:20:26.017Z,18.8
2023-06-11T06:21:27.259Z,18.8
2023-06-11T06:22:28.551Z,18.9
2023-06-11T06:23:38.809Z,18.9
2023-06-11T06:24:42.385Z,19
2023-06-11T06:25:43.540Z,19.1
2023-06-11T06:26:47.176Z,19.1
2023-06-11T06:27:48.414Z,19.2
2023-06-11T06:28:49.684Z,19.2
2023-06-11T06:29:53.645Z,19.3
2023-06-11T06:30:54.870Z,19.4
2023-06-11T06:31:58.826Z,19.4
2023-06-11T06:33:00.328Z,19.5
2023-06-11T06:34:01.990Z,19.6
2023-06-11T06:35:05.927Z,19.6
2023-06-11T06:36:07.203Z,19.7
2023-06-11T06:37:11.429Z,19.8
2023-06-11T06:38:12.569Z,19.9
2023-06-11T06:39:15.958Z,20
2023-06-11T06:40:17.109Z,20.1
2023-06-11T06:41:26.330Z,20.1
2023-06-11T06:42:28.090Z,20.2
2023-06-11T06:43:31.183Z,20.3
2023-06-11T06:44:32.398Z,20.4
2023-06-11T06:45:33.585Z,20.5
2023-06-11T06:46:34.750Z,20.6
2023-06-11T06:47:36.050Z,20.7
2023-06-11T06:48:37.500Z,20.8
2023-06-11T06:49:39.117Z,21
2023-06-11T06:50:40.312Z,21.1
2023-06-11T06:51:41.485Z,21.2
2023-06-11T06:52:42.717Z,21.3
2023-06-11T06:53:43.914Z,21.4
2023-06-11T06:54:45.066Z,21.6
2023-06-11T06:55:46.264Z,21.7
2023-06-11T06:56:47.420Z,21.8
2023-06-11T06:57:48.680Z,22
2023-06-11T06:58:50.069Z,22.1
2023-06-11T06:59:51.243Z,22.2
2023-06-11T07:00:52.419Z,22.4
2023-06-11T07:01:53.621Z,22.5
2023-06-11T07:02:54.893Z,22.6
2023-06-11T07:03:56.222Z,22.8
2023-06-11T07:04:57.388Z,22.9
2023-06-11T07:05:58.575Z,23.1
2023-06-11T07:06:59.787Z,23.2
2023-06-11T07:08:00.981Z,23.4
2023-06-11T07:09:02.123Z,23.5
2023-06-11T07:10:03.292Z,23.7
2023-06-11T07:11:04.462Z,23.8
2023-06-11T07:12:05.628Z,24
2023-06-11T07:13:06.842Z,24.1
2023-06-11T07:14:07.978Z,24.2
2023-06-11T07:15:09.162Z,24.4
2023-06-11T07:16:10.361Z,24.5
2023-06-11T07:17:11.697Z,24.7
2023-06-11T07:18:13.125Z,24.8
2023-06-11T07:19:14.287Z,25
2023-06-11T07:20:15.737Z,25.1
2023-06-11T07:21:20.644Z,25.3
2023-06-11T07:22:21.661Z,25.4
2023-06-11T07:23:23.162Z,25.5
2023-06-11T07:24:24.527Z,25.7
2023-06-11T07:25:25.972Z,25.8
2023-06-11T07:26:27.210Z,25.9
2023-06-11T07:27:28.420Z,26
2023-06-11T07:28:29.681Z,26.1
2023-06-11T07:29:30.905Z,26.3
2023-06-11T07:30:32.072Z,26.4
2023-06-11T07:31:33.366Z,26.5
2023-06-11T07:32:34.852Z,26.6
2023-06-11T07:33:36.110Z,26.8
2023-06-11T07:34:37.277Z,26.9
2023-06-11T07:35:38.465Z,27
2023-06-11T07:36:39.675Z,27.2
2023-06-11T07:37:40.830Z,27.3
2023-06-11T07:38:42.016Z,27.4
2023-06-11T07:39:43.164Z,27.5
2023-06-11T07:40:44.350Z,27.6
2023-06-11T07:41:45.505Z,27.7
2023-06-11T07:42:46.688Z,27.9
2023-06-11T07:43:47.945Z,28
2023-06-11T07:44:49.072Z,28.1
2023-06-11T07:45:50.256Z,28.2
2023-06-11T07:46:51.439Z,28.3
2023-06-11T07:47:52.777Z,28.4
2023-06-11T07:48:54.139Z,28.5
2023-06-11T07:49:55.292Z,28.7
2023-06-11T07:50:56.485Z,28.8
2023-06-11T07:51:57.621Z,28.9
2023-06-11T07:52:58.787Z,29
2023-06-11T07:53:59.989Z,29.1
2023-06-11T07:55:01.140Z,29.2
2023-06-11T07:56:02.312Z,29.3
2023-06-11T07:57:03.483Z,29.3
2023-06-11T07:58:04.644Z,29.4
2023-06-11T07:59:06.149Z,29.4
2023-06-11T08:00:06.981Z,29.5
2023-06-11T08:01:08.146Z,29.5
2023-06-11T08:02:09.333Z,29.6
2023-06-11T08:03:10.587Z,29.6
2023-06-11T08:04:11.767Z,29.6
2023-06-11T08:05:13.121Z,29.7
2023-06-11T08:06:14.483Z,29.7
2023-06-11T08:07:15.894Z,29.7
2023-06-11T08:08:17.057Z,29.8
2023-06-11T08:09:18.240Z,29.8
2023-06-11T08:10:19.408Z,29.9
2023-06-11T08:11:20.564Z,29.9
2023-06-11T08:12:21.727Z,30
2023-06-11T08:13:23.151Z,30
2023-06-11T08:14:24.402Z,30.1
2023-06-11T08:15:25.635Z,30.2
2023-06-11T08:16:26.798Z,30.2
2023-06-11T08:17:28.000Z,30.3
2023-06-11T08:18:29.184Z,30.3
2023-06-11T08:19:30.349Z,30.3
2023-06-11T08:20:31.514Z,30.4
2023-06-11T08:21:32.679Z,30.5
2023-06-11T08:22:33.848Z,30.5
2023-06-11T08:23:35.022Z,30.6
2023-06-11T08:24:36.205Z,30.6
2023-06-11T08:25:37.372Z,30.7
2023-06-11T08:26:41.101Z,30.8
2023-06-11T08:27:42.281Z,30.8
2023-06-11T08:28:43.441Z,30.9
2023-06-11T08:29:44.714Z,30.9
2023-06-11T08:30:45.843Z,31
2023-06-11T08:31:47.044Z,31
2023-06-11T08:32:51.291Z,31.1
2023-06-11T08:33:53.857Z,31.2
2023-06-11T08:34:55.049Z,31.2
2023-06-11T08:35:56.220Z,31.3
2023-06-11T08:36:57.374Z,31.3
2023-06-11T08:37:58.536Z,31.4
2023-06-11T08:38:59.701Z,31.5
2023-06-11T08:40:00.878Z,31.5
2023-06-11T08:41:02.036Z,31.6
2023-06-11T08:42:03.388Z,31.6
2023-06-11T08:43:07.505Z,31.7
2023-06-11T08:44:08.670Z,31.8
2023-06-11T08:45:09.888Z,31.8
2023-06-11T08:46:11.094Z,31.9
2023-06-11T08:47:12.340Z,31.9
2023-06-11T08:48:13.540Z,32
2023-06-11T08:49:14.830Z,32
2023-06-11T08:50:18.910Z,32.1
2023-06-11T08:51:20.070Z,32.1
2023-06-11T08:52:21.226Z,32.2
2023-06-11T08:53:22.393Z,32.2
2023-06-11T08:54:23.564Z,32.3
2023-06-11T08:55:24.781Z,32.4
2023-06-11T08:56:25.948Z,32.4
2023-06-11T08:57:27.270Z,32.5
2023-06-11T08:58:28.444Z,32.5
2023-06-11T08:59:29.607Z,32.6
2023-06-11T09:00:30.838Z,32.6
2023-06-11T09:01:32.007Z,32.7
2023-06-11T09:02:33.351Z,32.8
2023-06-11T09:03:34.646Z,32.8
2023-06-11T09:04:35.784Z,32.8
2023-06-11T09:05:36.965Z,32.9
2023-06-11T09:06:38.117Z,33
2023-06-11T09:07:39.289Z,33
2023-06-11T09:08:40.453Z,33.1
2023-06-11T09:09:41.626Z,33.1
2023-06-11T09:10:42.808Z,33.2
2023-06-11T09:11:43.959Z,33.3
2023-06-11T09:12:45.123Z,33.4
2023-06-11T09:13:46.286Z,33.4
2023-06-11T09:14:47.453Z,33.5
2023-06-11T09:15:48.711Z,33.6
2023-06-11T09:16:50.169Z,33.7
2023-06-11T09:17:51.541Z,33.7
2023-06-11T09:18:52.765Z,33.8
2023-06-11T09:19:53.932Z,33.8
2023-06-11T09:20:55.127Z,33.8
2023-06-11T09:21:56.270Z,33.9
2023-06-11T09:22:57.530Z,34
2023-06-11T09:23:58.767Z,34
2023-06-11T09:24:59.939Z,34.1
2023-06-11T09:26:01.245Z,34.1
2023-06-11T09:27:02.488Z,34.2
2023-06-11T09:28:03.650Z,34.3
2023-06-11T09:29:07.543Z,34.3
2023-06-11T09:30:11.713Z,34.3
2023-06-11T09:31:14.196Z,34.4
2023-06-11T09:32:32.386Z,34.4
2023-06-11T09:33:35.880Z,34.5
2023-06-11T09:34:37.049Z,34.5
2023-06-11T09:35:41.051Z,34.6
2023-06-11T09:36:42.257Z,34.7
2023-06-11T09:37:43.393Z,34.7
2023-06-11T09:38:44.673Z,34.7
2023-06-11T09:39:45.843Z,34.8
2023-06-11T09:40:50.100Z,34.8
2023-06-11T09:41:51.332Z,34.9
2023-06-11T09:42:55.239Z,34.9
2023-06-11T09:43:56.395Z,34.9
2023-06-11T09:44:57.569Z,34.9
2023-06-11T09:45:58.755Z,35
2023-06-11T09:47:01.244Z,34.9
2023-06-11T09:48:04.578Z,35
2023-06-11T09:49:08.949Z,34.9
2023-06-11T09:50:13.505Z,34.9
2023-06-11T09:51:40.906Z,35
2023-06-11T09:52:42.185Z,35
2023-06-11T09:53:43.317Z,35
2023-06-11T09:54:44.521Z,35
2023-06-11T09:55:54.143Z,35
2023-06-11T09:57:12.640Z,35.1
2023-06-11T09:58:16.635Z,35.1
2023-06-11T09:59:17.833Z,35.2
2023-06-11T10:00:21.699Z,35.2
2023-06-11T10:01:22.870Z,35.2
2023-06-11T10:02:41.791Z,35.3
2023-06-11T10:04:00.744Z,35.3
2023-06-11T10:05:04.833Z,35.3
2023-06-11T10:06:06.085Z,35.4
2023-06-11T10:07:09.771Z,35.4
2023-06-11T10:08:10.959Z,35.5
2023-06-11T10:09:16.959Z,35.6
2023-06-11T10:10:20.280Z,35.6
2023-06-11T10:11:30.501Z,35.6
2023-06-11T10:12:31.670Z,35.7
2023-06-11T10:13:36.157Z,35.7
2023-06-11T10:14:37.650Z,35.8
2023-06-11T10:15:44.661Z,35.8
2023-06-11T10:16:51.312Z,35.8
2023-06-11T10:17:55.198Z,35.8
2023-06-11T10:19:04.082Z,35.8
2023-06-11T10:20:05.261Z,35.8
2023-06-11T10:21:06.418Z,35.8
2023-06-11T10:22:10.406Z,35.9
2023-06-11T10:23:11.689Z,35.9
2023-06-11T10:24:12.956Z,36
2023-06-11T10:25:22.996Z,36
2023-06-11T10:26:29.140Z,36
2023-06-11T10:27:30.427Z,36.1
2023-06-11T10:28:31.593Z,36.1
2023-06-11T10:29:35.493Z,36.2
2023-06-11T10:30:36.733Z,36.2
2023-06-11T10:31:43.118Z,36.2
2023-06-11T10:32:44.363Z,36.2
2023-06-11T10:33:45.659Z,36.3
2023-06-11T10:34:47.331Z,36.3
2023-06-11T10:35:48.830Z,36.3
2023-06-11T10:36:50.021Z,36.3
2023-06-11T10:37:56.380Z,36.3
2023-06-11T10:38:57.553Z,36.3
2023-06-11T10:39:58.809Z,36.3
2023-06-11T10:40:59.998Z,36.4
2023-06-11T10:42:01.171Z,36.4
2023-06-11T10:43:05.055Z,36.5
2023-06-11T10:44:15.182Z,36.5
2023-06-11T10:45:16.342Z,36.5
2023-06-11T10:46:22.377Z,36.5
2023-06-11T10:47:28.868Z,36.6
2023-06-11T10:48:33.053Z,36.6
2023-06-11T10:49:39.096Z,36.6
2023-06-11T10:50:43.185Z,36.6
2023-06-11T10:51:44.335Z,36.6
2023-06-11T10:52:45.497Z,36.6
2023-06-11T10:53:49.625Z,36.6
2023-06-11T10:55:08.873Z,36.7
2023-06-11T10:56:18.106Z,36.7
2023-06-11T10:57:29.294Z,36.7
2023-06-11T10:58:30.460Z,36.7
2023-06-11T10:59:31.636Z,36.7
2023-06-11T11:00:32.853Z,36.7
2023-06-11T11:01:36.660Z,36.7
2023-06-11T11:02:38.026Z,36.7
2023-06-11T11:03:39.728Z,36.7
2023-06-11T11:04:43.778Z,36.8
2023-06-11T11:05:47.873Z,36.8
2023-06-11T11:07:01.337Z,36.9
2023-06-11T11:08:10.185Z,36.9
2023-06-11T11:09:15.798Z,36.9
2023-06-11T11:10:16.961Z,37
2023-06-11T11:11:23.906Z,37.1
2023-06-11T11:12:25.101Z,37.1
2023-06-11T11:13:26.234Z,37.2
2023-06-11T11:14:27.413Z,37.2
2023-06-11T11:15:31.148Z,37.3
2023-06-11T11:16:32.351Z,37.3
2023-06-11T11:17:33.716Z,37.4
2023-06-11T11:18:44.014Z,37.4
2023-06-11T11:19:45.167Z,37.4
2023-06-11T11:20:46.361Z,37.4
2023-06-11T11:21:47.535Z,37.4
2023-06-11T11:24:00.618Z,37.4
2023-06-11T11:25:04.236Z,37.4
2023-06-11T11:26:11.401Z,37.5
2023-06-11T11:27:18.441Z,37.5
2023-06-11T11:28:19.610Z,37.5
2023-06-11T11:29:20.776Z,37.6
2023-06-11T11:30:31.126Z,37.6
2023-06-11T11:31:37.435Z,37.6
2023-06-11T11:33:50.231Z,37.6
2023-06-11T11:34:54.313Z,37.6
2023-06-11T11:36:03.143Z,37.6
2023-06-11T11:37:09.433Z,37.6
2023-06-11T11:38:10.638Z,37.7
2023-06-11T11:39:17.584Z,37.7
2023-06-11T11:40:44.290Z,37.7
2023-06-11T11:41:54.159Z,37.7
2023-06-11T11:43:03.651Z,37.8
2023-06-11T11:44:13.840Z,37.8
2023-06-11T11:45:18.208Z,37.7
2023-06-11T11:46:19.382Z,37.8
2023-06-11T11:47:23.374Z,37.8
2023-06-11T11:48:27.690Z,37.8
2023-06-11T11:49:33.813Z,37.8
2023-06-11T11:50:40.376Z,37.8
2023-06-11T11:51:47.423Z,37.7
2023-06-11T11:52:48.783Z,37.7
2023-06-11T11:53:52.087Z,37.7
2023-06-11T11:54:53.277Z,37.7
2023-06-11T11:56:05.644Z,37.7
2023-06-11T11:57:14.104Z,37.7
2023-06-11T11:58:17.440Z,37.7
2023-06-11T11:59:18.632Z,37.7
2023-06-11T12:00:19.792Z,37.7
2023-06-11T12:01:24.147Z,37.7
2023-06-11T12:02:31.246Z,37.7
2023-06-11T12:03:32.800Z,37.7
2023-06-11T12:04:37.328Z,37.7
2023-06-11T12:05:38.847Z,37.7
2023-06-11T12:06:40.024Z,37.7
2023-06-11T12:07:41.203Z,37.7
2023-06-11T12:08:45.263Z,37.7
2023-06-11T12:09:46.491Z,37.7
2023-06-11T12:10:47.722Z,37.7
2023-06-11T12:12:04.835Z,37.7
2023-06-11T12:13:09.476Z,37.7
2023-06-11T12:14:13.431Z,37.7
2023-06-11T12:15:14.651Z,37.7
2023-06-11T12:16:15.881Z,37.7
2023-06-11T12:17:20.136Z,37.7
2023-06-11T12:18:21.374Z,37.7
2023-06-11T12:19:23.577Z,37.7
2023-06-11T12:20:25.693Z,37.7
2023-06-11T12:21:26.893Z,37.7
2023-06-11T12:22:30.588Z,37.7
2023-06-11T12:23:31.792Z,37.7
2023-06-11T12:24:33.102Z,37.7
2023-06-11T12:25:34.723Z,37.7
2023-06-11T12:26:35.955Z,37.7
2023-06-11T12:27:40.115Z,37.7
2023-06-11T12:28:41.264Z,37.7
2023-06-11T12:29:52.796Z,37.7
2023-06-11T12:30:53.955Z,37.7
2023-06-11T12:31:57.378Z,37.7
2023-06-11T12:33:01.861Z,37.6
2023-06-11T12:34:10.385Z,37.6
2023-06-11T12:35:18.369Z,37.6
2023-06-11T12:36:22.453Z,37.6
2023-06-11T12:37:26.388Z,37.6
2023-06-11T12:38:32.288Z,37.5
2023-06-11T12:39:39.915Z,37.5
2023-06-11T12:40:44.034Z,37.5
2023-06-11T12:41:48.147Z,37.4
2023-06-11T12:42:56.650Z,37.4
2023-06-11T12:44:02.638Z,37.4
2023-06-11T12:45:04.528Z,37.3
2023-06-11T12:46:05.795Z,37.3
2023-06-11T12:47:12.643Z,37.2
2023-06-11T12:48:16.848Z,37.2
2023-06-11T12:49:20.989Z,37.2
2023-06-11T12:50:27.161Z,37.2
2023-06-11T12:51:34.811Z,37.2
2023-06-11T12:52:38.584Z,37.2
2023-06-11T12:53:39.757Z,37.1
2023-06-11T12:54:43.798Z,37.1
2023-06-11T12:55:44.946Z,37.1
2023-06-11T12:56:49.172Z,37.1
2023-06-11T12:57:50.310Z,37
2023-06-11T12:58:54.333Z,36.9
2023-06-11T12:59:58.295Z,36.9
2023-06-11T13:00:59.478Z,36.8
2023-06-11T13:02:00.744Z,36.8
2023-06-11T13:03:01.908Z,36.8
2023-06-11T13:04:03.099Z,36.7
2023-06-11T13:05:09.908Z,36.7
2023-06-11T13:06:11.073Z,36.6
2023-06-11T13:07:12.226Z,36.6
2023-06-11T13:08:13.639Z,36.5
2023-06-11T13:09:14.805Z,36.4
2023-06-11T13:10:16.200Z,36.4
2023-06-11T13:11:17.645Z,36.3
2023-06-11T13:12:21.448Z,36.3
2023-06-11T13:13:24.944Z,36.3
2023-06-11T13:14:31.448Z,36.2
2023-06-11T13:15:32.612Z,36.2
2023-06-11T13:16:33.889Z,36.1
2023-06-11T13:17:35.642Z,36.1
2023-06-11T13:18:37.125Z,36
2023-06-11T13:19:40.934Z,36
2023-06-11T13:20:45.050Z,36
2023-06-11T13:21:51.936Z,35.9
2023-06-11T13:22:53.118Z,35.9
2023-06-11T13:23:57.178Z,35.9
2023-06-11T13:25:01.080Z,35.8
2023-06-11T13:26:05.229Z,35.8
2023-06-11T13:27:08.565Z,35.8
2023-06-11T13:28:22.421Z,35.7
2023-06-11T13:29:23.681Z,35.6
2023-06-11T13:30:24.923Z,35.6
2023-06-11T13:31:28.844Z,35.5
2023-06-11T13:32:39.982Z,35.5
2023-06-11T13:33:44.117Z,35.5
2023-06-11T13:34:52.827Z,35.4
2023-06-11T13:35:54.159Z,35.4
2023-06-11T13:37:07.250Z,35.4
2023-06-11T13:38:08.412Z,35.3
2023-06-11T13:39:09.586Z,35.3
2023-06-11T13:40:11.108Z,35.3
2023-06-11T13:41:13.689Z,35.2
2023-06-11T13:42:44.482Z,35.2
2023-06-11T13:43:48.731Z,35.1
2023-06-11T13:45:10.926Z,35
2023-06-11T13:46:16.981Z,35
2023-06-11T13:47:23.051Z,34.9
2023-06-11T13:48:29.325Z,34.8
2023-06-11T13:49:36.451Z,34.8
2023-06-11T13:50:46.779Z,34.7
2023-06-11T13:51:58.250Z,34.6
2023-06-11T13:53:11.207Z,34.6
2023-06-11T13:54:43.814Z,34.5
2023-06-11T13:55:47.720Z,34.5
2023-06-11T13:56:48.896Z,34.4
2023-06-11T13:58:00.437Z,34.4
2023-06-11T14:07:04.559Z,33.9